Grant, NE (69140)

2:57 PM MST on December 27, 2014 (GMT -0700)
Sisco Fertilizer | Change Station
CLOSE
Current Station
Personal Weather Station
Location: Elsie, NE
Elevation: 3415 ft
Nearby Weather Stations

Elev 3415 ft 40.84 °N, 101.40 °W | Updated 4 seconds ago

Clear
Clear
24.3 °F
Feels Like 15 °F
N
9.0
Wind Variable Wind from West
Gusts 14.0 mph

Today
High -- | Low -- °F
--% Chance of Precip.
Yesterday
High -- | Low -- °F
Precip. -- in
7:10 AM 4:25 PM
Waxing Crescent, 40% visible
Pressure 30.14 in
Visibility 10.0 miles
Clouds Clear
Windchill 15 °F
Dew Point 14 °F
Humidity 64%
Rainfall 0.00 in
Snow Depth Not available.
UV 1 out of 12
Pollen .10 out of 12
Air Quality Not available.
Flu Activity Not available.
METAR KOGA 272135Z AUTO 28004KT 10SM CLR M05/M10 A3014 RMK AO2 T10461105

More Conditions Fewer Conditions

Pressure 30.14 in
Visibility 10.0 miles
Clouds Clear
Windchill 15 °F
Dew Point 14 °F
Humidity 64%
Rainfall 0.00 in
Snow Depth Not available.
UV 1 out of 12
Pollen .10 out of 12
Air Quality Not available.
Flu Activity Not available.
METAR KOGA 272135Z AUTO 28004KT 10SM CLR M05/M10 A3014 RMK AO2 T10461105

More Conditions Fewer Conditions

10-Day Weather Forecast

Almanac

Astronomy

Dec. 27, 2014 Rise Set
Actual Time
Civil Twilight
Nautical Twilight
Astronomical Twilight
Moon
Length of Visible Light
Length of Day
Tomorrow will be .
, % of the Moon is Illuminated

Today's Extremes

State Highs State Lows

Community

WunderPhotos

Upload Photos

1,781,073 photos uploaded!

WunderBlogs® & News

Nearby

Air Quality

  Air Quality AQ Index Pollutant
Not available.

Snow Depth

Station Depth Elevation

Earthquake Activity

City Distance Mag. Time & Date
Minimum magnitude displayed is 2.5.

Coastal Water Temperatures

Place Temperature

Nearby Weather Stations